Time;durP1;ratioP1;P1;durP2;ratioP2;P2;SDS_P1;SDS_P2;PMS_P1;PMS_P2;Temp;Humidity;BMP_temperature;BMP_pressure;BME280_temperature;BME280_humidity;BME280_pressure;Samples;Min_cycle;Max_cycle;Signal;HPM_P1;HPM_P2
2023/03/08 00:02:05;;;;;;;10.75;3.83;;;;;;;0.48;84.85;98310.10;1859083;76;25393;-59
2023/03/08 00:04:33;;;;;;;6.90;4.97;;;;;;;0.47;85.20;98312.50;1859071;76;25505;-59
2023/03/08 00:07:00;;;;;;;5.42;3.58;;;;;;;0.44;85.26;98305.64;1859146;76;25471;-56
2023/03/08 00:09:27;;;;;;;4.97;3.20;;;;;;;0.40;85.33;98309.98;1859277;76;27507;-55
2023/03/08 00:11:53;;;;;;;5.65;3.02;;;;;;;0.38;85.62;98310.27;1859137;77;25597;-59
2023/03/08 00:14:21;;;;;;;4.40;2.35;;;;;;;0.34;85.67;98314.05;1859164;77;25438;-58
2023/03/08 00:16:48;;;;;;;4.17;2.83;;;;;;;0.28;85.92;98320.51;1837677;77;27318;-58
2023/03/08 00:19:14;;;;;;;4.50;2.33;;;;;;;0.25;86.18;98319.75;1859153;76;25614;-59
2023/03/08 00:21:41;;;;;;;3.50;2.30;;;;;;;0.22;86.12;98321.66;1858998;76;27451;-59
2023/03/08 00:24:10;;;;;;;3.37;2.12;;;;;;;0.20;86.43;98312.40;1859047;76;25422;-58
2023/03/08 00:26:37;;;;;;;;;;;;;;;0.15;86.54;98314.06;1861891;77;25590;-59
2023/03/08 00:29:05;;;;;;;2.27;1.80;;;;;;;0.14;86.66;98318.34;1859085;77;25566;-59
2023/03/08 00:31:31;;;;;;;2.42;2.02;;;;;;;0.09;86.75;98313.09;1859110;76;25370;-59
2023/03/08 00:33:58;;;;;;;1.82;1.57;;;;;;;0.06;86.86;98305.69;1859120;77;28063;-59
2023/03/08 00:36:24;;;;;;;4.35;2.12;;;;;;;0.04;87.13;98305.97;1837657;77;26147;-59
2023/03/08 00:38:51;;;;;;;3.00;2.02;;;;;;;0.02;87.34;98299.35;1837765;77;25372;-59
2023/03/08 00:41:19;;;;;;;2.52;1.80;;;;;;;-0.01;87.06;98292.21;1837627;77;25681;-60
2023/03/08 00:43:45;;;;;;;2.25;1.80;;;;;;;-0.02;87.03;98293.30;1859124;76;25456;-59
2023/03/08 00:46:13;;;;;;;2.70;1.90;;;;;;;-0.03;87.74;98296.25;1859100;77;27454;-59
2023/03/08 00:48:42;;;;;;;2.17;1.98;;;;;;;-0.05;87.28;98291.73;1858982;77;25686;-59
2023/03/08 00:51:13;;;;;;;6.03;2.35;;;;;;;-0.05;87.25;98295.20;1859105;76;25443;-59
2023/03/08 00:53:40;;;;;;;3.70;2.58;;;;;;;-0.06;87.71;98296.27;1859085;76;26179;-58
2023/03/08 00:56:06;;;;;;;4.42;2.27;;;;;;;-0.06;87.86;98296.27;1859064;77;25599;-61
2023/03/08 00:58:33;;;;;;;2.95;1.90;;;;;;;-0.07;87.90;98299.21;1859108;76;27483;-58
2023/03/08 01:00:59;;;;;;;4.25;2.65;;;;;;;-0.08;88.12;98298.43;1858948;77;25412;-61
2023/03/08 01:03:26;;;;;;;4.50;2.35;;;;;;;-0.08;88.27;98298.98;1859053;77;25524;-58
2023/03/08 01:05:56;;;;;;;4.08;2.15;;;;;;;-0.11;88.21;98305.64;1859052;77;26275;-59
2023/03/08 01:08:25;;;;;;;3.15;2.25;;;;;;;-0.12;88.40;98306.73;1837945;77;25544;-59
2023/03/08 01:10:57;;;;;;;6.17;2.77;;;;;;;-0.12;88.19;98301.42;1859416;76;27435;-59
2023/03/08 01:13:26;;;;;;;3.90;2.50;;;;;;;-0.14;88.34;98296.91;1836390;77;25380;-59
2023/03/08 01:15:53;;;;;;;3.55;2.47;;;;;;;-0.14;88.28;98302.22;1859255;77;25352;-59
2023/03/08 01:18:19;;;;;;;5.75;2.50;;;;;;;-0.15;88.43;98299.84;1859200;77;25524;-59
2023/03/08 01:20:57;;;;;;;3.83;2.33;;;;;;;-0.15;88.56;98300.66;1859308;76;25401;-59
2023/03/08 01:23:24;;;;;;;6.28;3.02;;;;;;;-0.17;88.57;98304.67;1864654;76;27849;-59
2023/03/08 01:26:04;;;;;;;5.25;2.45;;;;;;;-0.21;89.05;98301.25;1865473;76;25614;-57
2023/03/08 01:28:31;;;;;;;2.95;2.45;;;;;;;-0.23;89.67;98299.42;1865747;76;25381;-59
2023/03/08 01:31:05;;;;;;;6.20;3.83;;;;;;;-0.26;89.28;98297.88;1865514;76;25366;-59
2023/03/08 01:33:32;;;;;;;4.10;2.45;;;;;;;-0.28;89.19;98296.83;1865645;76;25631;-59
2023/03/08 01:35:58;;;;;;;3.65;2.60;;;;;;;-0.30;89.01;98291.56;1865576;76;27992;-59
2023/03/08 01:38:25;;;;;;;4.97;2.98;;;;;;;-0.30;89.00;98292.34;1848659;76;25744;-59
2023/03/08 01:40:57;;;;;;;3.52;1.77;;;;;;;-0.29;89.31;98290.47;1865530;76;25358;-59
2023/03/08 01:43:37;;;;;;;4.03;2.47;;;;;;;-0.31;89.15;98291.30;1865498;76;25456;-59
2023/03/08 01:46:09;;;;;;;3.33;2.30;;;;;;;-0.33;89.25;98286.27;1865626;76;25409;-59
2023/03/08 01:49:14;;;;;;;4.15;2.12;;;;;;;-0.34;90.07;98291.87;1865679;76;27722;-58
2023/03/08 01:51:57;;;;;;;2.92;2.22;;;;;;;-0.37;89.62;98303.88;1865475;76;25543;-59
2023/03/08 01:54:37;;;;;;;4.03;2.80;;;;;;;-0.39;89.73;98301.50;1865556;76;25482;-57
2023/03/08 01:57:09;;;;;;;2.87;2.45;;;;;;;-0.39;89.92;98289.54;1865537;76;25582;-59
2023/03/08 01:59:38;;;;;;;3.42;2.20;;;;;;;-0.41;89.95;98283.73;1865222;76;25584;-59
2023/03/08 02:02:05;;;;;;;3.22;2.33;;;;;;;-0.43;90.08;98293.05;1865622;76;27535;-58
2023/03/08 02:04:32;;;;;;;4.15;2.33;;;;;;;-0.45;89.97;98292.55;1865453;76;25731;-59
2023/03/08 02:06:59;;;;;;;6.08;1.98;;;;;;;-0.49;90.36;98291.55;1848758;76;25576;-57
2023/03/08 02:09:26;;;;;;;10.03;2.42;;;;;;;-0.51;90.20;98281.72;1865519;76;25614;-58
2023/03/08 02:11:57;;;;;;;4.60;2.25;;;;;;;-0.52;90.23;98286.25;1865591;76;25528;-57
2023/03/08 02:14:25;;;;;;;3.70;2.33;;;;;;;-0.54;90.25;98280.44;1865445;76;27393;-58
2023/03/08 02:16:51;;;;;;;5.05;2.50;;;;;;;-0.54;91.09;98287.08;1848730;76;25583;-58
2023/03/08 02:19:32;;;;;;;3.62;2.37;;;;;;;-0.58;90.66;98289.52;1865552;76;25586;-58
2023/03/08 02:21:58;;;;;;;3.42;1.87;;;;;;;-0.58;90.57;98288.70;1863594;76;25601;-58
2023/03/08 02:24:25;;;;;;;3.98;2.77;;;;;;;-0.58;90.50;98299.33;1837947;77;25480;-59
2023/03/08 02:26:59;;;;;;;2.70;2.17;;;;;;;-0.59;90.92;98296.44;1859186;76;27564;-59
2023/03/08 02:29:26;;;;;;;4.75;3.02;;;;;;;-0.60;90.88;98300.94;1858292;76;25586;-57
2023/03/08 02:31:52;;;;;;;7.08;3.52;;;;;;;-0.61;91.06;98304.69;1859173;76;25357;-58
2023/03/08 02:34:18;;;;;;;5.05;2.62;;;;;;;-0.62;91.02;98304.97;1859142;76;25545;-57
2023/03/08 02:36:44;;;;;;;4.75;2.65;;;;;;;-0.63;91.14;98304.19;1859179;77;25426;-58
2023/03/08 02:39:10;;;;;;;7.87;2.92;;;;;;;-0.63;91.37;98299.39;1859134;77;29736;-58
2023/03/08 02:41:37;;;;;;;8.75;3.37;;;;;;;-0.64;91.71;98303.14;1859016;76;25544;-59
2023/03/08 02:44:03;;;;;;;6.72;3.58;;;;;;;-0.65;91.33;98312.95;1859164;77;25371;-59
2023/03/08 02:46:30;;;;;;;6.80;3.30;;;;;;;-0.65;91.26;98310.84;1859094;77;25592;-58
2023/03/08 02:48:56;;;;;;;5.87;3.00;;;;;;;-0.63;91.30;98322.77;1859249;76;25591;-57
2023/03/08 02:51:22;;;;;;;3.98;2.95;;;;;;;-0.62;91.11;98318.24;1859135;76;27518;-58
2023/03/08 02:53:48;;;;;;;7.87;3.35;;;;;;;-0.62;91.87;98323.01;1859062;76;25441;-58
2023/03/08 02:56:15;;;;;;;8.50;3.75;;;;;;;-0.62;91.46;98328.86;1859113;77;25635;-59
2023/03/08 02:58:41;;;;;;;2.95;2.00;;;;;;;-0.62;91.32;98326.20;1859138;77;25612;-58
2023/03/08 03:01:14;;;;;;;6.40;3.40;;;;;;;-0.62;91.42;98330.19;1859203;76;25553;-58
2023/03/08 03:03:41;;;;;;;4.92;2.98;;;;;;;-0.61;91.42;98333.89;1859107;77;27588;-59
2023/03/08 03:06:19;;;;;;;5.90;2.65;;;;;;;-0.60;91.37;98338.11;1859024;76;25501;-58
2023/03/08 03:08:46;;;;;;;3.33;2.50;;;;;;;-0.59;91.46;98341.03;1859192;76;25391;-59
2023/03/08 03:11:16;;;;;;;2.90;2.15;;;;;;;-0.59;91.53;98346.89;1859106;76;25513;-58
2023/03/08 03:13:42;;;;;;;;;;;;;;;-0.59;91.50;98348.22;1861943;76;25450;-60
2023/03/08 03:16:13;;;;;;;4.55;2.20;;;;;;;-0.58;91.42;98351.11;1859171;76;27491;-59
2023/03/08 03:18:41;;;;;;;4.17;2.00;;;;;;;-0.59;91.35;98348.22;1859092;76;26099;-58
2023/03/08 03:21:12;;;;;;;2.75;2.27;;;;;;;-0.60;91.27;98350.06;1859152;77;25590;-59
2023/03/08 03:23:40;;;;;;;3.92;2.00;;;;;;;-0.60;91.28;98351.94;1859024;77;25514;-58
2023/03/08 03:26:14;;;;;;;2.10;1.60;;;;;;;-0.60;91.29;98353.27;1859148;77;25599;-59
2023/03/08 03:28:41;;;;;;;5.50;2.37;;;;;;;-0.60;91.55;98347.41;1856902;77;27486;-58
2023/03/08 03:31:12;;;;;;;8.33;2.42;;;;;;;-0.60;91.59;98355.92;1859061;77;25602;-58
2023/03/08 03:33:38;;;;;;;3.62;2.33;;;;;;;-0.59;91.44;98360.17;1859164;77;25374;-58
2023/03/08 03:36:08;;;;;;;6.50;2.90;;;;;;;-0.60;91.46;98362.56;1837717;77;25616;-59
2023/03/08 03:38:36;;;;;;;7.97;1.77;;;;;;;-0.59;91.50;98359.63;1859221;77;25555;-59
2023/03/08 03:41:07;;;;;;;4.92;1.77;;;;;;;-0.58;91.77;98364.39;1859136;76;28084;-58
2023/03/08 03:43:34;;;;;;;6.33;2.22;;;;;;;-0.58;91.70;98362.55;1838387;77;25452;-58
2023/03/08 03:46:05;;;;;;;5.20;1.75;;;;;;;-0.55;91.79;98381.09;1859141;76;25454;-57
2023/03/08 03:48:34;;;;;;;3.35;2.62;;;;;;;-0.53;91.79;98384.80;1859074;76;25506;-59
2023/03/08 03:51:08;;;;;;;7.20;2.98;;;;;;;-0.54;92.11;98380.58;1859292;77;25704;-60
2023/03/08 03:53:35;;;;;;;5.50;3.52;;;;;;;-0.52;91.79;98378.43;1859019;76;29618;-60
2023/03/08 03:56:16;;;;;;;5.55;2.72;;;;;;;-0.50;91.66;98389.55;1859004;76;25525;-60
2023/03/08 03:58:43;;;;;;;6.33;3.22;;;;;;;-0.48;91.66;98382.09;1837764;77;25606;-59
2023/03/08 04:01:23;;;;;;;9.08;3.85;;;;;;;-0.47;91.77;98386.34;1859094;76;25648;-60
2023/03/08 04:03:52;;;;;;;6.05;3.15;;;;;;;-0.45;91.94;98391.61;1858763;77;25559;-58
2023/03/08 04:06:25;;;;;;;7.53;3.37;;;;;;;-0.43;91.75;98390.78;1859401;77;27457;-60
2023/03/08 04:08:55;;;;;;;6.58;4.00;;;;;;;-0.42;91.64;98385.73;1859035;76;25566;-60
2023/03/08 04:11:26;;;;;;;8.18;4.22;;;;;;;-0.38;91.75;98396.59;1859254;76;25588;-59
2023/03/08 04:13:53;;;;;;;7.72;4.03;;;;;;;-0.37;91.93;98402.16;1859102;76;25548;-59
2023/03/08 04:16:30;;;;;;;11.45;5.75;;;;;;;-0.34;91.82;98400.80;1859144;77;25369;-58
2023/03/08 04:19:03;;;;;;;9.23;5.58;;;;;;;-0.32;91.82;98405.28;1858513;76;29624;-59
2023/03/08 04:21:30;;;;;;;10.63;5.05;;;;;;;-0.32;91.75;98394.66;1859065;77;25372;-59
2023/03/08 04:23:58;;;;;;;10.82;5.95;;;;;;;-0.30;91.65;98399.17;1858998;77;25507;-58
2023/03/08 04:26:25;;;;;;;10.72;6.12;;;;;;;-0.29;92.35;98398.08;1837860;77;25547;-59
2023/03/08 04:28:52;;;;;;;14.85;7.00;;;;;;;-0.28;91.91;98404.98;1859073;77;25598;-59
2023/03/08 04:31:22;;;;;;;11.97;5.65;;;;;;;-0.26;92.02;98398.30;1859119;77;27345;-59
2023/03/08 04:33:50;;;;;;;9.80;6.08;;;;;;;-0.26;91.86;98398.84;1859050;76;25668;-59
2023/03/08 04:36:18;;;;;;;13.50;6.47;;;;;;;-0.24;92.05;98400.67;1859111;76;25543;-59
2023/03/08 04:38:46;;;;;;;13.13;6.80;;;;;;;-0.23;91.90;98399.61;1837636;77;26124;-59
2023/03/08 04:41:13;;;;;;;14.45;7.58;;;;;;;-0.22;91.78;98402.53;1859160;76;25562;-58
2023/03/08 04:43:44;;;;;;;12.25;6.42;;;;;;;-0.21;92.62;98396.12;1859183;76;27491;-59
2023/03/08 04:46:11;;;;;;;13.75;6.30;;;;;;;-0.21;92.04;98393.47;1858832;76;25513;-59
2023/03/08 04:48:38;;;;;;;12.50;7.12;;;;;;;-0.22;91.79;98401.20;1859468;77;25400;-59
2023/03/08 04:51:07;;;;;;;9.85;6.85;;;;;;;-0.22;91.45;98406.52;1859524;77;25618;-60
2023/03/08 04:53:37;;;;;;;8.88;5.50;;;;;;;-0.24;91.67;98412.63;1859736;77;25366;-60
2023/03/08 04:56:07;;;;;;;13.32;7.47;;;;;;;-0.25;91.73;98415.05;1859344;77;28046;-60
2023/03/08 04:58:35;;;;;;;13.10;6.92;;;;;;;-0.26;91.56;98422.21;1859315;76;25713;-59
2023/03/08 05:01:23;;;;;;;18.12;6.40;;;;;;;-0.27;91.65;98430.49;1859270;76;25511;-60
2023/03/08 05:03:52;;;;;;;20.25;8.68;;;;;;;-0.26;91.83;98429.41;1859232;77;25536;-59
2023/03/08 05:06:22;;;;;;;14.23;7.28;;;;;;;-0.27;91.82;98432.61;1859409;77;25535;-59
2023/03/08 05:08:49;;;;;;;15.03;7.85;;;;;;;-0.25;91.93;98419.82;1859265;77;27523;-59
2023/03/08 05:11:24;;;;;;;12.63;7.10;;;;;;;-0.25;91.86;98423.03;1859163;76;25815;-59
2023/03/08 05:13:54;;;;;;;15.50;7.15;;;;;;;-0.24;91.82;98437.87;1859067;76;25572;-60
2023/03/08 05:16:21;;;;;;;19.00;8.55;;;;;;;-0.23;91.90;98437.59;1859235;76;25461;-59
2023/03/08 05:18:48;;;;;;;14.85;7.75;;;;;;;-0.22;92.05;98435.20;1859243;76;25370;-60
2023/03/08 05:21:18;;;;;;;16.82;8.48;;;;;;;-0.21;91.83;98443.41;1859256;76;27471;-58
2023/03/08 05:23:46;;;;;;;17.48;8.50;;;;;;;-0.18;91.63;98435.97;1862364;76;25569;-56
2023/03/08 05:26:15;;;;;;;17.42;9.50;;;;;;;-0.17;91.55;98451.64;1865562;76;25528;-58
2023/03/08 05:28:42;;;;;;;20.88;8.50;;;;;;;-0.16;91.46;98449.22;1865551;76;25991;-58
2023/03/08 05:31:16;;;;;;;14.20;7.80;;;;;;;-0.14;91.48;98464.88;1848816;76;25377;-58
2023/03/08 05:33:45;;;;;;;15.45;7.92;;;;;;;-0.14;91.27;98457.70;1865631;76;27498;-58
2023/03/08 05:36:14;;;;;;;17.23;8.98;;;;;;;-0.13;91.11;98464.61;1865653;76;25503;-60
2023/03/08 05:38:41;;;;;;;10.53;6.05;;;;;;;-0.12;90.98;98466.72;1865817;76;25657;-60
2023/03/08 05:41:12;;;;;;;17.45;8.65;;;;;;;-0.10;90.92;98457.92;1865523;76;25523;-60
2023/03/08 05:43:38;;;;;;;16.90;8.30;;;;;;;-0.10;90.88;98460.06;1863602;76;25594;-59
2023/03/08 05:46:12;;;;;;;13.98;7.97;;;;;;;-0.08;90.70;98466.42;1865550;76;27525;-56
2023/03/08 05:48:39;;;;;;;18.05;8.40;;;;;;;-0.06;90.66;98474.35;1865591;76;25410;-58
2023/03/08 05:51:10;;;;;;;19.23;9.85;;;;;;;-0.05;90.48;98479.13;1865577;76;25539;-59
2023/03/08 05:53:37;;;;;;;17.92;9.28;;;;;;;-0.05;90.28;98476.47;1865521;76;25567;-58
2023/03/08 05:56:14;;;;;;;14.78;8.50;;;;;;;-0.04;90.13;98482.83;1865593;76;25523;-60
2023/03/08 05:58:42;;;;;;;15.43;8.58;;;;;;;-0.04;89.72;98491.35;1865577;76;27549;-61
2023/03/08 06:01:19;;;;;;;17.45;9.08;;;;;;;-0.03;89.61;98494.27;1865480;76;25366;-60
2023/03/08 06:03:49;;;;;;;17.32;9.18;;;;;;;-0.02;89.45;98493.18;1865547;76;25526;-59
2023/03/08 06:06:17;;;;;;;17.67;9.25;;;;;;;-0.02;89.36;98499.31;1865500;76;25550;-60
2023/03/08 06:08:44;;;;;;;18.05;8.98;;;;;;;-0.04;89.36;98502.77;1865586;76;25289;-59
2023/03/08 06:11:11;;;;;;;17.67;8.90;;;;;;;-0.01;89.28;98511.51;1865636;76;27579;-60
2023/03/08 06:13:37;;;;;;;19.70;9.28;;;;;;;0.01;89.10;98511.78;1865524;76;25528;-60
2023/03/08 06:16:06;;;;;;;16.85;8.70;;;;;;;0.01;88.90;98513.11;1848731;76;25623;-60
2023/03/08 06:18:35;;;;;;;12.43;6.93;;;;;;;0.01;88.74;98526.40;1865782;76;25521;-60
2023/03/08 06:21:07;;;;;;;15.23;8.60;;;;;;;0.01;88.62;98535.16;1865724;76;25433;-61
2023/03/08 06:23:35;;;;;;;15.75;9.08;;;;;;;0.00;88.49;98538.91;1863528;76;29611;-58
2023/03/08 06:26:04;;;;;;;16.45;9.03;;;;;;;-0.03;88.25;98547.44;1859090;76;25371;-60
2023/03/08 06:28:32;;;;;;;14.70;8.23;;;;;;;-0.05;87.70;98557.53;1859470;77;31026;-61
2023/03/08 06:30:58;;;;;;;16.00;7.95;;;;;;;-0.08;87.73;98561.56;1859134;76;26206;-60
2023/03/08 06:33:29;;;;;;;16.37;8.08;;;;;;;-0.08;87.74;98554.92;1859066;76;25434;-61
2023/03/08 06:36:06;;;;;;;11.60;7.15;;;;;;;-0.06;87.75;98553.31;1858924;77;27445;-61
2023/03/08 06:38:36;;;;;;;14.20;7.47;;;;;;;0.00;87.63;98568.15;1858301;76;25658;-61
2023/03/08 06:41:04;;;;;;;15.68;7.75;;;;;;;0.05;87.16;98567.28;1858663;76;25987;-59
2023/03/08 06:43:31;;;;;;;16.52;8.35;;;;;;;0.08;86.65;98572.83;1858799;76;25565;-61
2023/03/08 06:45:58;;;;;;;13.72;8.75;;;;;;;0.17;86.32;98575.66;1837502;77;25458;-61
2023/03/08 06:48:24;;;;;;;13.50;8.10;;;;;;;0.26;86.33;98576.64;1858922;76;28151;-61
2023/03/08 06:50:50;;;;;;;20.17;13.50;;;;;;;0.35;85.97;98586.91;1859027;77;25904;-60
2023/03/08 06:53:17;;;;;;;29.12;26.52;;;;;;;0.60;86.78;98588.25;1859179;76;25523;-62
2023/03/08 06:55:43;;;;;;;44.85;41.48;;;;;;;0.86;86.33;98588.16;1859142;77;25546;-60
2023/03/08 06:58:10;;;;;;;18.07;15.38;;;;;;;1.01;86.27;98598.37;1859160;77;25353;-60
2023/03/08 07:00:37;;;;;;;10.90;6.67;;;;;;;1.16;84.53;98597.36;1859179;76;27425;-61
2023/03/08 07:03:04;;;;;;;16.45;8.48;;;;;;;1.18;82.22;98605.87;1859041;76;25673;-61
2023/03/08 07:05:30;;;;;;;16.20;14.55;;;;;;;1.24;82.58;98601.52;1859080;77;25350;-61
2023/03/08 07:07:56;;;;;;;40.55;37.50;;;;;;;1.39;82.85;98604.48;1859144;76;25445;-61
2023/03/08 07:10:22;;;;;;;31.87;28.75;;;;;;;1.63;82.28;98607.59;1859195;77;25565;-61
2023/03/08 07:12:50;;;;;;;13.00;6.60;;;;;;;1.72;81.20;98616.52;1837926;77;27410;-60
2023/03/08 07:15:20;;;;;;;11.30;5.95;;;;;;;1.93;78.47;98612.19;1837805;77;25561;-63
2023/03/08 07:17:50;;;;;;;13.70;7.20;;;;;;;1.95;79.19;98616.13;1859181;77;25585;-62
2023/03/08 07:20:19;;;;;;;14.30;6.65;;;;;;;2.14;78.90;98616.06;1859270;76;25601;-60
2023/03/08 07:22:45;;;;;;;;;;;;;;;2.23;76.61;98612.98;1840661;77;25605;-61
2023/03/08 07:25:15;;;;;;;16.90;6.22;;;;;;;2.43;78.18;98622.50;1859149;77;29704;-60
2023/03/08 07:27:42;;;;;;;;;;;;;;;2.54;75.77;98621.76;1840448;77;26233;-61
2023/03/08 07:30:12;;;;;;;9.30;5.87;;;;;;;2.76;76.25;98629.07;1859121;77;25350;-62
2023/03/08 07:32:43;;;;;;;18.67;14.58;;;;;;;2.90;75.06;98627.72;1859140;76;26044;-62
2023/03/08 07:35:13;;;;;;;10.82;7.45;;;;;;;3.06;73.07;98634.08;1838353;77;25506;-62
2023/03/08 07:37:43;;;;;;;10.15;6.25;;;;;;;3.27;73.87;98621.06;1859207;76;27565;-61
2023/03/08 07:40:13;;;;;;;10.82;6.15;;;;;;;3.53;75.54;98630.09;1859042;77;25422;-61
2023/03/08 07:42:39;;;;;;;8.93;5.03;;;;;;;3.89;74.75;98626.58;1859120;76;25548;-61
2023/03/08 07:45:09;;;;;;;9.95;5.75;;;;;;;4.27;74.08;98620.83;1859172;77;25428;-59
2023/03/08 07:47:35;;;;;;;9.00;6.05;;;;;;;4.71;74.06;98634.38;1838029;77;25351;-62
2023/03/08 07:50:02;;;;;;;10.63;6.40;;;;;;;4.86;72.97;98646.56;1859118;77;27436;-62
2023/03/08 07:52:30;;;;;;;9.10;5.10;;;;;;;5.04;63.32;98654.89;1859035;76;25728;-60
2023/03/08 07:54:56;;;;;;;12.80;5.97;;;;;;;5.04;64.90;98657.57;1837796;77;25457;-62
2023/03/08 07:57:23;;;;;;;13.00;8.10;;;;;;;4.95;68.68;98658.64;1859046;77;25887;-60
2023/03/08 07:59:53;;;;;;;10.75;7.60;;;;;;;5.36;68.51;98659.60;1859148;77;25567;-61
2023/03/08 08:02:19;;;;;;;10.80;5.53;;;;;;;5.46;69.42;98657.70;1859347;77;29965;-60
2023/03/08 08:04:45;;;;;;;10.08;6.53;;;;;;;5.70;65.76;98663.94;1859091;77;25527;-58
2023/03/08 08:07:15;;;;;;;9.33;5.53;;;;;;;5.52;64.24;98657.23;1859163;76;25362;-59
2023/03/08 08:09:42;;;;;;;8.38;5.47;;;;;;;5.45;64.38;98673.02;1859050;76;25480;-59
2023/03/08 08:12:09;;;;;;;8.83;5.42;;;;;;;5.07;63.38;98671.44;1859155;76;25397;-61
2023/03/08 08:14:36;;;;;;;11.90;5.33;;;;;;;5.01;64.39;98664.11;1859097;76;28487;-60
2023/03/08 08:17:04;;;;;;;10.80;4.80;;;;;;;4.96;64.43;98661.01;1859009;77;25366;-60
2023/03/08 08:19:31;;;;;;;10.75;6.50;;;;;;;5.30;66.15;98668.11;1837933;77;25559;-60
2023/03/08 08:21:58;;;;;;;13.98;7.08;;;;;;;5.53;64.65;98666.84;1859039;77;25484;-61
2023/03/08 08:24:27;;;;;;;8.88;5.95;;;;;;;5.52;64.40;98679.25;1859026;77;25387;-60
2023/03/08 08:26:53;;;;;;;10.30;6.53;;;;;;;5.63;62.54;98683.75;1859059;77;27734;-59
2023/03/08 08:29:20;;;;;;;10.32;7.42;;;;;;;5.30;61.09;98675.59;1858958;76;25794;-60
2023/03/08 08:31:47;;;;;;;38.48;34.88;;;;;;;5.48;63.48;98682.31;1793802;77;25497;-61
2023/03/08 08:34:13;;;;;;;21.15;19.37;;;;;;;6.11;65.46;98682.27;1859063;77;25587;-61
2023/03/08 08:36:40;;;;;;;84.67;78.67;;;;;;;6.69;63.46;98679.25;1859152;76;25534;-60
2023/03/08 08:39:06;;;;;;;10.35;4.95;;;;;;;7.04;63.77;98682.58;1859126;76;28686;-60
2023/03/08 08:41:33;;;;;;;7.25;4.70;;;;;;;7.21;58.45;98682.25;1859026;76;25501;-61
2023/03/08 08:44:01;;;;;;;9.00;4.25;;;;;;;7.06;59.29;98693.00;1837781;77;25393;-61
2023/03/08 08:46:28;;;;;;;9.43;5.00;;;;;;;6.67;58.27;98686.28;1859083;77;25356;-60
2023/03/08 08:48:57;;;;;;;6.60;4.25;;;;;;;6.46;57.80;98697.52;1859125;76;25430;-59
2023/03/08 08:51:24;;;;;;;7.62;4.62;;;;;;;6.59;60.02;98699.22;1859236;77;27849;-62
2023/03/08 08:53:51;;;;;;;8.90;7.28;;;;;;;6.49;57.74;98694.19;1859014;76;25590;-60
2023/03/08 08:56:22;;;;;;;9.45;6.42;;;;;;;6.75;57.98;98687.38;1859014;76;25395;-60
2023/03/08 08:58:48;;;;;;;7.70;5.00;;;;;;;6.91;56.56;98695.67;1859145;77;25405;-60
2023/03/08 09:01:24;;;;;;;8.30;4.72;;;;;;;7.38;59.85;98708.26;1859073;77;25536;-60
2023/03/08 09:03:51;;;;;;;8.53;4.85;;;;;;;7.69;57.48;98706.53;1859086;76;26995;-60
2023/03/08 09:06:20;;;;;;;7.83;5.45;;;;;;;7.72;52.08;98700.50;1858985;77;25564;-59
2023/03/08 09:08:53;;;;;;;7.62;4.10;;;;;;;7.72;55.13;98699.72;1859222;76;25425;-61
2023/03/08 09:11:21;;;;;;;5.85;4.22;;;;;;;8.19;53.32;98706.22;1858954;76;25480;-59
2023/03/08 09:13:47;;;;;;;8.20;5.05;;;;;;;8.00;53.16;98706.69;1837728;77;25580;-61
2023/03/08 09:16:26;;;;;;;8.03;4.58;;;;;;;8.12;53.67;98704.59;1859074;77;28162;-61
2023/03/08 09:18:55;;;;;;;6.70;4.12;;;;;;;7.92;54.18;98715.64;1837712;77;26211;-61
2023/03/08 09:21:23;;;;;;;10.78;4.10;;;;;;;8.13;52.35;98718.30;1859207;77;25615;-61
2023/03/08 09:23:50;;;;;;;7.00;4.25;;;;;;;8.32;52.95;98719.16;1859231;75;25615;-62
2023/03/08 09:26:17;;;;;;;6.20;3.70;;;;;;;8.43;49.22;98715.50;1865466;76;25596;-60
2023/03/08 09:28:44;;;;;;;8.63;4.87;;;;;;;8.08;50.03;98712.55;1865545;76;27539;-62
2023/03/08 09:31:17;;;;;;;12.37;7.35;;;;;;;8.04;49.39;98721.08;1864999;76;25670;-62
2023/03/08 09:33:48;;;;;;;9.83;4.85;;;;;;;8.49;52.67;98719.00;1849144;76;25618;-62
2023/03/08 09:36:15;;;;;;;8.65;4.22;;;;;;;8.89;48.36;98718.41;1865523;76;26098;-63
2023/03/08 09:38:42;;;;;;;8.38;6.12;;;;;;;8.83;49.71;98721.09;1865605;76;25429;-61
2023/03/08 09:41:25;;;;;;;25.55;23.55;;;;;;;9.14;46.77;98724.61;1865582;76;27453;-60
2023/03/08 09:44:12;;;;;;;9.05;6.00;;;;;;;9.05;46.94;98724.48;1865460;76;25767;-63
2023/03/08 09:47:01;;;;;;;8.38;5.67;;;;;;;9.03;47.42;98709.98;1785497;80;25614;-62
2023/03/08 09:49:31;;;;;;;14.90;4.72;;;;;;;9.33;49.64;98700.30;1748515;82;25666;-61
2023/03/08 09:52:23;;;;;;;4.78;3.50;;;;;;;9.86;48.72;98703.80;1748506;82;25690;-61
2023/03/08 09:54:51;;;;;;;8.00;4.25;;;;;;;10.54;50.63;98703.53;1690105;83;27447;-62
2023/03/08 09:57:32;;;;;;;7.33;4.35;;;;;;;10.96;44.45;98695.45;1690090;84;25787;-62
2023/03/08 10:00:06;;;;;;;6.85;4.12;;;;;;;10.84;44.29;98702.55;1690115;84;25528;-62
2023/03/08 10:02:46;;;;;;;7.80;4.00;;;;;;;11.04;42.65;98708.02;1689534;83;25654;-63
2023/03/08 10:05:27;;;;;;;7.80;4.08;;;;;;;11.08;42.92;98708.11;1678595;84;25457;-62
2023/03/08 10:08:01;;;;;;;4.83;3.80;;;;;;;10.57;41.42;98703.38;1690163;84;27509;-62
2023/03/08 10:11:04;;;;;;;6.42;3.80;;;;;;;10.51;41.57;98711.55;1678427;84;25855;-63
2023/03/08 10:13:38;;;;;;;8.13;4.15;;;;;;;10.35;41.08;98705.55;1690144;84;25666;-62
2023/03/08 10:16:27;;;;;;;6.70;4.08;;;;;;;10.34;39.98;98699.14;1690214;84;25662;-62
2023/03/08 10:19:20;;;;;;;6.65;4.10;;;;;;;10.34;42.24;98710.72;1678658;84;25638;-63
2023/03/08 10:21:47;;;;;;;6.70;4.15;;;;;;;10.71;41.57;98705.66;1690199;84;28063;-63
2023/03/08 10:24:32;;;;;;;8.40;3.83;;;;;;;10.98;41.81;98706.70;1724061;82;26088;-62
2023/03/08 10:27:21;;;;;;;6.75;4.10;;;;;;;11.68;44.49;98700.56;1787112;80;25489;-62
2023/03/08 10:29:55;;;;;;;4.85;3.47;;;;;;;12.22;40.58;98713.06;1761055;80;25923;-62
2023/03/08 10:32:23;;;;;;;6.53;3.77;;;;;;;12.42;42.15;98702.41;1836234;77;25521;-63
2023/03/08 10:34:50;;;;;;;6.85;3.40;;;;;;;12.63;37.94;98700.66;1859158;77;27485;-63
2023/03/08 10:37:19;;;;;;;7.60;3.35;;;;;;;12.31;39.00;98701.45;1859089;76;25599;-64
2023/03/08 10:39:53;;;;;;;5.92;3.70;;;;;;;12.44;40.87;98712.89;1859378;76;25573;-63
2023/03/08 10:42:24;;;;;;;5.47;3.77;;;;;;;12.93;41.62;98709.48;1859178;77;25537;-63
2023/03/08 10:45:13;;;;;;;8.95;4.05;;;;;;;12.79;35.55;98716.03;1859226;77;25576;-63
2023/03/08 10:47:40;;;;;;;8.35;3.75;;;;;;;12.02;39.39;98715.80;1859209;77;27507;-63
2023/03/08 10:50:17;;;;;;;7.05;4.20;;;;;;;12.09;40.14;98712.45;1859099;76;26094;-63
2023/03/08 10:52:46;;;;;;;5.45;3.83;;;;;;;11.70;39.66;98708.34;1859283;77;25359;-65
2023/03/08 10:55:17;;;;;;;7.65;3.02;;;;;;;10.97;39.99;98715.40;1859253;77;25538;-63
2023/03/08 10:58:00;;;;;;;9.48;4.30;;;;;;;10.38;40.56;98712.16;1859182;76;25603;-63
2023/03/08 11:00:40;;;;;;;7.62;3.75;;;;;;;10.02;40.63;98713.30;1859212;76;28757;-64
2023/03/08 11:03:19;;;;;;;8.70;3.98;;;;;;;9.98;41.87;98715.70;1859120;77;25485;-64
2023/03/08 11:06:03;;;;;;;;;;;;;;;10.42;43.53;98704.38;1861887;77;25125;-63
2023/03/08 11:08:38;;;;;;;7.33;3.70;;;;;;;10.96;42.88;98715.17;1859197;77;25829;-62
2023/03/08 11:11:10;;;;;;;6.08;3.33;;;;;;;11.08;40.11;98709.45;1859048;76;25356;-63
2023/03/08 11:13:46;;;;;;;7.37;3.83;;;;;;;10.33;40.39;98729.98;1857925;76;27438;-62
2023/03/08 11:16:47;;;;;;;7.47;4.00;;;;;;;9.56;40.35;98722.77;1859133;76;25511;-61
2023/03/08 11:19:37;;;;;;;12.33;4.67;;;;;;;9.19;40.69;98718.18;1858882;77;25598;-63
2023/03/08 11:22:29;;;;;;;84.15;78.52;;;;;;;8.45;41.28;98720.02;1858085;76;25831;-63
2023/03/08 11:25:25;;;;;;;6.75;3.95;;;;;;;8.34;43.78;98709.64;1860585;76;25552;-62
2023/03/08 11:28:00;;;;;;;8.98;3.70;;;;;;;8.67;43.53;98725.58;1865364;76;28365;-62
2023/03/08 11:30:44;;;;;;;6.28;4.03;;;;;;;8.60;44.00;98730.16;1865433;76;26319;-62
2023/03/08 11:33:28;;;;;;;5.60;3.62;;;;;;;8.20;43.47;98722.59;1865493;76;25563;-62
2023/03/08 11:36:21;;;;;;;8.03;4.20;;;;;;;7.98;44.77;98722.39;1865287;76;26309;-63
2023/03/08 11:39:14;;;;;;;6.28;3.42;;;;;;;8.16;45.01;98718.43;1820683;76;25573;-62
2023/03/08 11:42:08;;;;;;;7.30;3.95;;;;;;;7.96;44.62;98716.55;1865199;76;26847;-60
2023/03/08 11:44:55;;;;;;;82.08;76.75;;;;;;;7.65;45.33;98706.97;1865346;76;25376;-62
2023/03/08 11:47:38;;;;;;;81.97;75.95;;;;;;;7.51;46.25;98701.05;1865416;76;25580;-61
2023/03/08 11:50:34;;;;;;;77.83;72.77;;;;;;;7.58;46.75;98695.38;1860326;76;25906;-61
2023/03/08 13:33:52;;;;;;;7.37;4.75;;;;;;;10.04;41.91;98688.08;1868290;76;33839;-64